Time;durP1;ratioP1;P1;durP2;ratioP2;P2;SDS_P1;SDS_P2;PMS_P1;PMS_P2;Temp;Humidity;BMP_temperature;BMP_pressure;BME280_temperature;BME280_humidity;BME280_pressure;Samples;Min_cycle;Max_cycle;Signal;HPM_P1;HPM_P2
2023/05/09 00:00:56;;;;;;;4.82;4.38;;;;;;;13.21;73.82;95190.91;5079227;28;20207;-72
2023/05/09 00:03:25;;;;;;;5.15;4.70;;;;;;;13.16;74.03;95186.47;5096260;28;20192;-72
2023/05/09 00:05:56;;;;;;;5.40;4.90;;;;;;;13.15;74.33;95184.06;5097054;28;20639;-72
2023/05/09 00:08:23;;;;;;;5.78;5.25;;;;;;;13.10;74.36;95176.84;5096918;28;20275;-72
2023/05/09 00:10:51;;;;;;;4.90;4.50;;;;;;;13.13;74.38;95183.63;5095948;28;20200;-72
2023/05/09 00:13:20;;;;;;;5.72;5.22;;;;;;;13.14;74.05;95185.22;5096845;28;20237;-72
2023/05/09 00:15:48;;;;;;;8.77;7.85;;;;;;;13.03;74.11;95182.25;5096853;28;20189;-73
2023/05/09 00:18:17;;;;;;;10.48;7.93;;;;;;;12.94;74.43;95181.69;5095478;28;20337;-72
2023/05/09 00:20:52;;;;;;;15.10;9.75;;;;;;;12.96;74.70;95185.69;5096617;28;20184;-72
2023/05/09 00:23:22;;;;;;;10.00;8.27;;;;;;;12.98;74.92;95177.00;5096829;28;20184;-72
2023/05/09 00:25:51;;;;;;;6.30;5.45;;;;;;;12.96;74.80;95176.56;5096350;28;20249;-72
2023/05/09 00:28:18;;;;;;;6.57;5.30;;;;;;;12.88;74.48;95169.28;5096403;28;20197;-72
2023/05/09 00:30:49;;;;;;;7.05;5.72;;;;;;;12.84;74.48;95169.22;5095541;28;20262;-71
2023/05/09 00:33:19;;;;;;;6.18;5.63;;;;;;;12.82;74.71;95176.28;5096989;28;20283;-71
2023/05/09 00:35:53;;;;;;;5.03;4.63;;;;;;;12.78;75.08;95170.66;5095132;28;20192;-71
2023/05/09 00:38:19;;;;;;;5.78;5.00;;;;;;;12.79;75.11;95169.53;5096350;28;20216;-71
2023/05/09 00:40:46;;;;;;;4.60;4.20;;;;;;;12.81;75.05;95174.69;5096310;28;20191;-71
2023/05/09 00:43:13;;;;;;;4.95;4.55;;;;;;;12.83;74.90;95173.16;5095868;28;20585;-71
2023/05/09 00:45:41;;;;;;;4.22;3.92;;;;;;;12.83;74.69;95175.94;5095522;28;20253;-71
2023/05/09 00:48:08;;;;;;;4.40;4.10;;;;;;;12.85;74.52;95162.50;5095466;28;20184;-72
2023/05/09 00:50:40;;;;;;;4.13;3.83;;;;;;;12.90;74.45;95165.00;5094980;28;20203;-72
2023/05/09 00:53:12;;;;;;;4.15;3.85;;;;;;;12.92;74.25;95167.41;5096082;28;20275;-71
2023/05/09 00:55:40;;;;;;;4.65;4.32;;;;;;;12.88;74.30;95166.53;5095675;28;20184;-72
2023/05/09 00:58:08;;;;;;;4.30;3.90;;;;;;;12.91;73.98;95166.59;5095955;28;20204;-72
2023/05/09 01:00:39;;;;;;;4.72;4.32;;;;;;;12.91;73.81;95163.81;5095071;28;20200;-72
2023/05/09 01:03:09;;;;;;;4.70;4.30;;;;;;;12.91;73.81;95163.81;5095608;28;20575;-73
2023/05/09 01:05:49;;;;;;;4.63;4.22;;;;;;;12.95;73.92;95158.34;5095872;28;20219;-73
2023/05/09 01:08:55;;;;;;;3.90;3.70;;;;;;;12.98;73.73;95163.16;5095934;28;20185;-73
2023/05/09 01:11:27;;;;;;;3.70;3.40;;;;;;;13.05;72.97;95156.97;5094445;28;20215;-72
2023/05/09 01:14:14;;;;;;;3.80;3.50;;;;;;;13.08;72.41;95157.03;5095084;28;20200;-72
2023/05/09 01:16:45;;;;;;;3.65;3.35;;;;;;;13.12;72.19;95163.44;5094495;28;20220;-73
2023/05/09 01:19:32;;;;;;;3.47;3.20;;;;;;;13.15;72.07;95161.91;5095693;28;20207;-73
2023/05/09 01:22:04;;;;;;;3.50;3.20;;;;;;;13.16;71.89;95157.97;5095491;28;20211;-73
2023/05/09 01:25:19;;;;;;;3.60;3.10;;;;;;;13.13;71.75;95165.03;5094929;28;20192;-73
2023/05/09 01:28:00;;;;;;;3.45;3.15;;;;;;;13.07;72.26;95165.69;5063142;28;20215;-73
2023/05/09 01:30:32;;;;;;;3.78;3.47;;;;;;;13.06;72.16;95164.09;5095499;28;20267;-73
2023/05/09 01:33:18;;;;;;;3.55;3.35;;;;;;;12.99;72.04;95167.53;5095110;28;20180;-73
2023/05/09 01:35:52;;;;;;;3.80;3.50;;;;;;;13.00;72.03;95169.94;5094985;28;20200;-73
2023/05/09 01:38:25;;;;;;;3.80;3.60;;;;;;;12.97;72.36;95169.88;5095345;28;20212;-73
2023/05/09 01:40:58;;;;;;;3.47;3.28;;;;;;;12.99;72.30;95167.53;5095016;28;20193;-74
2023/05/09 01:43:30;;;;;;;3.60;3.30;;;;;;;12.96;72.54;95169.09;5094793;28;20269;-73
2023/05/09 01:46:03;;;;;;;3.67;3.40;;;;;;;12.93;73.01;95158.75;5094972;28;20189;-73
2023/05/09 01:48:30;;;;;;;4.07;3.78;;;;;;;12.89;72.67;95168.94;5095029;28;20654;-73
2023/05/09 01:51:01;;;;;;;3.80;3.60;;;;;;;12.86;72.91;95163.34;5094294;28;20192;-73
2023/05/09 01:53:30;;;;;;;4.53;4.15;;;;;;;12.87;73.11;95171.25;5095248;28;20192;-73
2023/05/09 01:55:58;;;;;;;3.95;3.58;;;;;;;12.92;73.01;95175.69;5094793;28;20196;-73
2023/05/09 01:58:27;;;;;;;4.00;3.70;;;;;;;12.97;72.53;95175.41;5095928;28;20230;-73
2023/05/09 02:00:56;;;;;;;4.10;3.70;;;;;;;12.95;72.51;95173.00;5081228;28;20200;-74
2023/05/09 02:03:32;;;;;;;3.75;3.55;;;;;;;12.97;72.62;95178.97;5099413;28;20204;-72
2023/05/09 02:06:03;;;;;;;3.75;3.45;;;;;;;13.01;72.35;95167.97;5099427;28;20210;-73
2023/05/09 02:08:32;;;;;;;3.80;3.47;;;;;;;13.01;72.44;95177.09;5099103;28;20181;-72
2023/05/09 02:11:00;;;;;;;4.20;3.90;;;;;;;12.99;72.33;95182.16;5098342;28;20205;-72
2023/05/09 02:13:28;;;;;;;4.18;3.88;;;;;;;13.02;72.29;95175.91;5098389;28;20207;-71
2023/05/09 02:15:56;;;;;;;4.20;3.80;;;;;;;13.07;72.00;95177.59;5098522;28;20322;-71
2023/05/09 02:18:33;;;;;;;4.30;4.00;;;;;;;13.06;71.79;95175.19;5098007;28;20216;-71
2023/05/09 02:21:01;;;;;;;4.35;4.05;;;;;;;13.09;71.64;95168.91;5099037;28;20258;-71
2023/05/09 02:23:29;;;;;;;4.00;3.65;;;;;;;13.10;71.41;95168.53;5098404;28;20246;-72
2023/05/09 02:26:00;;;;;;;6.07;4.32;;;;;;;13.10;71.37;95171.31;5098034;28;20208;-72
2023/05/09 02:28:28;;;;;;;4.47;4.07;;;;;;;13.05;71.38;95179.13;5097900;28;20287;-72
2023/05/09 02:30:59;;;;;;;4.30;4.00;;;;;;;13.02;71.55;95183.41;5097469;28;20200;-72
2023/05/09 02:33:33;;;;;;;4.53;4.22;;;;;;;13.02;71.84;95175.09;5098201;28;20215;-72
2023/05/09 02:36:00;;;;;;;4.40;4.10;;;;;;;13.00;71.64;95174.69;5097582;28;20199;-72
2023/05/09 02:38:31;;;;;;;4.50;4.20;;;;;;;13.04;71.58;95185.84;5097713;28;20220;-73
2023/05/09 02:41:02;;;;;;;4.93;4.53;;;;;;;13.02;71.54;95166.81;5097752;28;20291;-73
2023/05/09 02:43:29;;;;;;;4.70;4.40;;;;;;;12.95;71.92;95173.00;5098665;28;20652;-73
2023/05/09 02:45:57;;;;;;;4.75;4.45;;;;;;;12.91;72.38;95172.13;5098568;28;20185;-72
2023/05/09 02:48:25;;;;;;;4.85;4.45;;;;;;;12.89;72.32;95174.47;5097763;28;20192;-73
2023/05/09 02:50:56;;;;;;;4.90;4.60;;;;;;;12.83;72.46;95175.94;5097277;28;20208;-73
2023/05/09 02:53:25;;;;;;;5.90;5.43;;;;;;;12.79;72.81;95172.28;5097971;28;20204;-74
2023/05/09 02:55:57;;;;;;;5.88;5.38;;;;;;;12.76;73.00;95178.56;5097714;28;20199;-73
2023/05/09 02:58:25;;;;;;;5.80;5.30;;;;;;;12.77;73.20;95172.63;5098040;28;20211;-73
2023/05/09 03:00:56;;;;;;;6.13;5.53;;;;;;;12.77;73.30;95171.84;5097605;28;20200;-73
2023/05/09 03:03:26;;;;;;;5.80;5.30;;;;;;;12.76;73.27;95173.00;5097453;28;20200;-74
2023/05/09 03:05:55;;;;;;;6.30;5.70;;;;;;;12.71;73.26;95182.41;5098361;28;20271;-74
2023/05/09 03:08:24;;;;;;;5.57;5.18;;;;;;;12.70;73.34;95177.22;5097461;28;20250;-74
2023/05/09 03:10:52;;;;;;;6.53;5.47;;;;;;;12.66;73.26;95182.69;5095148;28;20208;-74
2023/05/09 03:13:22;;;;;;;6.93;5.55;;;;;;;12.63;73.31;95183.41;5098070;28;20196;-74
2023/05/09 03:15:50;;;;;;;5.65;5.15;;;;;;;12.60;73.92;95178.63;5097562;28;20196;-74
2023/05/09 03:18:17;;;;;;;6.90;6.30;;;;;;;12.60;73.98;95186.94;5097912;28;20210;-74
2023/05/09 03:20:45;;;;;;;6.60;5.95;;;;;;;12.55;73.59;95189.97;5097371;28;20228;-76
2023/05/09 03:23:20;;;;;;;6.70;6.10;;;;;;;12.53;74.08;95195.06;5079974;28;20212;-76
2023/05/09 03:25:49;;;;;;;7.65;6.95;;;;;;;12.53;74.14;95211.69;5097136;28;20224;-76
2023/05/09 03:28:19;;;;;;;8.13;7.03;;;;;;;12.55;73.98;95203.00;5080077;28;20204;-76
2023/05/09 03:30:47;;;;;;;7.30;6.60;;;;;;;12.55;74.26;95208.53;5096279;28;20208;-76
2023/05/09 03:33:20;;;;;;;6.60;6.00;;;;;;;12.51;74.46;95206.50;5097240;28;20193;-76
2023/05/09 03:35:49;;;;;;;7.60;6.95;;;;;;;12.52;74.59;95210.06;5097820;28;20184;-76
2023/05/09 03:38:23;;;;;;;9.48;8.68;;;;;;;12.54;74.26;95210.50;5096804;28;20216;-76
2023/05/09 03:40:54;;;;;;;7.88;7.00;;;;;;;12.53;74.68;95215.25;5096659;28;20199;-76
2023/05/09 03:43:22;;;;;;;6.68;6.18;;;;;;;12.57;74.90;95215.31;5096040;28;20271;-75
2023/05/09 03:45:53;;;;;;;6.20;5.60;;;;;;;12.58;75.27;95221.66;5097490;28;20184;-76
2023/05/09 03:48:23;;;;;;;5.57;5.15;;;;;;;12.55;75.29;95219.59;5096600;28;20204;-76
2023/05/09 03:50:53;;;;;;;6.03;5.43;;;;;;;12.54;75.74;95218.81;5096277;28;20196;-76
2023/05/09 03:53:24;;;;;;;8.70;6.75;;;;;;;12.52;75.92;95221.91;5095603;28;20534;-76
2023/05/09 03:55:52;;;;;;;6.43;5.88;;;;;;;12.53;75.91;95218.00;5096175;28;20196;-75
2023/05/09 03:58:21;;;;;;;5.70;4.90;;;;;;;12.63;75.60;95226.88;5095769;28;20550;-75
2023/05/09 04:00:49;;;;;;;5.82;5.05;;;;;;;12.69;75.09;95222.69;5096812;28;20195;-75
2023/05/09 04:03:17;;;;;;;6.35;5.93;;;;;;;12.72;74.30;95222.75;5096890;28;20218;-75
2023/05/09 04:05:45;;;;;;;5.57;5.18;;;;;;;12.76;74.71;95222.84;5096158;28;20430;-75
2023/05/09 04:08:14;;;;;;;4.88;4.40;;;;;;;12.76;74.12;95220.06;5096429;28;20199;-75
2023/05/09 04:10:43;;;;;;;4.72;4.43;;;;;;;12.79;74.16;95224.09;5095650;28;20200;-73
2023/05/09 04:13:13;;;;;;;4.97;4.57;;;;;;;12.82;73.77;95218.63;5096842;28;20192;-75
2023/05/09 04:15:44;;;;;;;4.40;4.10;;;;;;;12.85;73.70;95222.59;5097021;28;20207;-76
2023/05/09 04:18:13;;;;;;;4.93;4.43;;;;;;;12.87;73.31;95220.28;5096680;28;20303;-76
2023/05/09 04:20:43;;;;;;;4.65;4.30;;;;;;;12.89;73.84;95223.47;5095900;28;20196;-74
2023/05/09 04:23:11;;;;;;;5.03;4.63;;;;;;;12.87;73.98;95228.59;5094964;28;20185;-73
2023/05/09 04:25:41;;;;;;;4.63;4.22;;;;;;;12.89;73.76;95224.31;5095766;28;20203;-73
2023/05/09 04:28:10;;;;;;;4.70;4.30;;;;;;;12.90;74.00;95231.44;5096117;28;20240;-73
2023/05/09 04:30:39;;;;;;;4.70;4.25;;;;;;;12.91;73.93;95227.50;5095629;28;20215;-73
2023/05/09 04:33:06;;;;;;;4.75;4.35;;;;;;;12.92;73.58;95223.56;5096396;28;20225;-73
2023/05/09 04:35:37;;;;;;;4.85;4.35;;;;;;;12.96;73.96;95230.00;5095348;28;20200;-74
2023/05/09 04:38:05;;;;;;;4.80;4.50;;;;;;;13.02;73.52;95228.50;5095107;28;20200;-74
2023/05/09 04:40:34;;;;;;;4.32;4.03;;;;;;;13.01;73.55;95235.22;5095535;28;20200;-74
2023/05/09 04:43:03;;;;;;;5.50;4.55;;;;;;;12.96;73.35;95234.69;5095265;28;20607;-80
2023/05/09 04:45:36;;;;;;;6.03;5.43;;;;;;;12.98;73.32;95233.19;5095743;28;20241;-77
2023/05/09 04:48:07;;;;;;;4.63;4.22;;;;;;;12.98;73.73;95238.72;5095242;28;20189;-77
2023/05/09 04:50:39;;;;;;;4.90;4.50;;;;;;;12.87;73.63;95242.44;5095019;28;20220;-77
2023/05/09 04:53:07;;;;;;;4.50;4.18;;;;;;;12.81;74.06;95241.91;5096185;28;20194;-73
2023/05/09 04:55:38;;;;;;;6.22;4.22;;;;;;;12.74;73.93;95242.59;5095164;28;20719;-75
2023/05/09 04:58:09;;;;;;;5.00;4.45;;;;;;;12.77;73.98;95235.50;5078592;28;20228;-73
2023/05/09 05:00:43;;;;;;;5.20;4.70;;;;;;;12.75;74.52;95235.06;5097120;28;20185;-73
2023/05/09 05:03:11;;;;;;;6.18;5.68;;;;;;;12.81;74.48;95228.06;5097334;28;20188;-72
2023/05/09 05:05:40;;;;;;;6.53;5.93;;;;;;;12.87;74.35;95234.13;5096201;28;20204;-73
2023/05/09 05:08:11;;;;;;;6.53;5.95;;;;;;;12.91;74.79;95230.25;5096646;28;20199;-73
2023/05/09 05:10:39;;;;;;;6.70;6.18;;;;;;;12.97;74.83;95233.56;5096813;28;20184;-71
2023/05/09 05:13:10;;;;;;;6.85;6.10;;;;;;;12.96;74.25;95230.00;5098219;28;20272;-72
2023/05/09 05:15:43;;;;;;;6.88;6.28;;;;;;;12.95;74.60;95241.41;5098075;28;20267;-70
2023/05/09 05:18:11;;;;;;;5.00;4.60;;;;;;;12.87;73.96;95223.84;5097538;28;20188;-71
2023/05/09 05:20:40;;;;;;;4.70;4.32;;;;;;;12.81;73.63;95235.56;5099330;28;20196;-71
2023/05/09 05:23:10;;;;;;;4.38;4.00;;;;;;;12.74;73.89;95230.69;5097261;28;20228;-72
2023/05/09 05:25:37;;;;;;;4.75;4.40;;;;;;;12.82;74.02;95235.22;5096094;28;20604;-72
2023/05/09 05:28:05;;;;;;;4.72;4.43;;;;;;;12.86;74.09;95233.34;5098527;28;20204;-72
2023/05/09 05:30:33;;;;;;;5.60;4.70;;;;;;;12.95;73.80;95242.22;5097163;28;20189;-73
2023/05/09 05:33:04;;;;;;;3.80;3.50;;;;;;;13.02;73.76;95236.81;5094650;28;20200;-68
2023/05/09 05:35:34;;;;;;;4.40;4.00;;;;;;;13.02;73.33;95242.34;5095427;28;20650;-73
2023/05/09 05:38:02;;;;;;;4.75;4.38;;;;;;;13.07;73.31;95244.06;5094915;28;20214;-72
2023/05/09 05:40:32;;;;;;;3.42;3.13;;;;;;;13.06;72.04;95238.88;5095536;28;20209;-70
2023/05/09 05:43:02;;;;;;;2.95;2.55;;;;;;;12.99;72.10;95245.84;5094017;28;20235;-73
2023/05/09 05:45:31;;;;;;;2.95;2.75;;;;;;;13.00;71.68;95239.16;5095924;28;20215;-71
2023/05/09 05:48:04;;;;;;;2.70;2.50;;;;;;;12.91;71.67;95244.09;5095779;28;20245;-72
2023/05/09 05:50:35;;;;;;;2.80;2.60;;;;;;;12.94;71.79;95240.63;5094863;28;20195;-72
2023/05/09 05:53:05;;;;;;;3.00;2.80;;;;;;;12.93;71.77;95244.56;5094851;28;20203;-72
2023/05/09 05:55:36;;;;;;;2.90;2.70;;;;;;;13.02;71.41;95239.59;5094944;28;20200;-69
2023/05/09 05:58:03;;;;;;;2.80;2.50;;;;;;;13.09;71.12;95246.44;5094480;28;20197;-68
2023/05/09 06:00:34;;;;;;;2.53;2.33;;;;;;;13.09;71.10;95250.00;5095182;28;20269;-74
2023/05/09 06:03:07;;;;;;;2.60;2.40;;;;;;;13.10;70.34;95250.81;5095448;28;20519;-73
2023/05/09 06:05:35;;;;;;;2.47;2.22;;;;;;;13.09;69.47;95244.47;5095495;28;20290;-72
2023/05/09 06:08:05;;;;;;;2.67;2.47;;;;;;;13.06;69.94;95247.16;5095230;28;20200;-69
2023/05/09 06:10:31;;;;;;;2.25;2.05;;;;;;;13.10;69.50;95254.38;5095870;28;20200;-72
2023/05/09 06:12:59;;;;;;;3.53;2.42;;;;;;;13.12;69.15;95249.28;5095703;28;20211;-70
2023/05/09 06:15:28;;;;;;;2.50;2.40;;;;;;;13.06;68.65;95242.44;5093834;28;20257;-75
2023/05/09 06:17:55;;;;;;;2.90;2.70;;;;;;;13.07;69.01;95241.28;5094633;28;20299;-75
2023/05/09 06:20:25;;;;;;;2.78;2.58;;;;;;;13.10;69.35;95237.75;5095191;28;20216;-74
2023/05/09 06:22:53;;;;;;;2.60;2.50;;;;;;;13.08;67.61;95242.88;5094342;28;20196;-74
2023/05/09 06:25:21;;;;;;;2.92;2.65;;;;;;;13.05;68.30;95249.16;5094481;28;20196;-72
2023/05/09 06:27:50;;;;;;;3.83;3.42;;;;;;;13.15;68.49;95240.25;5095136;28;20208;-71
2023/05/09 06:30:21;;;;;;;3.13;2.83;;;;;;;13.27;68.71;95238.53;5095492;28;20196;-71
2023/05/09 06:32:51;;;;;;;3.42;3.13;;;;;;;13.32;67.27;95247.31;5095104;28;20204;-73
2023/05/09 06:35:18;;;;;;;2.50;2.30;;;;;;;13.19;65.82;95246.66;5095120;28;20193;-73
2023/05/09 06:37:48;;;;;;;2.78;2.25;;;;;;;13.18;66.75;95249.78;5094274;28;20204;-74
2023/05/09 06:40:20;;;;;;;2.40;2.20;;;;;;;13.24;66.78;95245.59;5095044;28;20216;-72
2023/05/09 06:42:48;;;;;;;2.28;2.10;;;;;;;13.32;66.86;95235.44;5095117;28;20315;-72
2023/05/09 06:45:19;;;;;;;2.60;2.40;;;;;;;13.33;66.72;95239.84;5096110;28;20253;-72
2023/05/09 06:48:26;;;;;;;2.47;2.28;;;;;;;13.36;67.48;95244.63;5098811;28;20195;-73
2023/05/09 06:51:33;;;;;;;2.38;2.28;;;;;;;13.42;67.63;95240.41;5000371;28;20297;-74
2023/05/09 06:54:38;;;;;;;2.95;2.50;;;;;;;13.42;67.28;95243.97;5017036;28;20594;-74
2023/05/09 06:57:43;;;;;;;4.03;2.10;;;;;;;13.36;66.15;95242.69;5000896;28;20209;-72
2023/05/09 07:00:47;;;;;;;2.10;2.00;;;;;;;13.38;66.85;95243.09;4984220;28;20296;-69
2023/05/09 07:03:52;;;;;;;2.15;1.95;;;;;;;13.41;66.69;95245.13;5000183;28;20215;-68
2023/05/09 07:06:59;;;;;;;2.58;2.38;;;;;;;13.38;65.71;95236.75;4983774;28;20597;-68
2023/05/09 07:10:05;;;;;;;2.70;2.50;;;;;;;13.47;66.30;95240.91;5000445;28;20199;-71
2023/05/09 07:13:13;;;;;;;2.13;2.03;;;;;;;13.56;65.63;95232.34;5016534;28;20301;-70
2023/05/09 07:16:21;;;;;;;3.58;2.35;;;;;;;13.66;65.68;95230.94;5016619;28;20195;-73
2023/05/09 07:19:27;;;;;;;3.65;2.30;;;;;;;13.75;65.74;95239.00;5000485;28;20324;-70
2023/05/09 07:22:33;;;;;;;2.10;2.00;;;;;;;13.75;65.58;95241.78;5017110;28;20210;-72
2023/05/09 07:25:38;;;;;;;2.17;2.08;;;;;;;13.75;65.17;95239.81;5016048;28;20255;-70
2023/05/09 07:28:46;;;;;;;3.15;2.85;;;;;;;13.78;65.57;95246.59;4999666;28;20210;-69
2023/05/09 07:31:55;;;;;;;2.20;1.95;;;;;;;13.78;66.07;95230.75;5016215;28;20191;-69
2023/05/09 07:35:04;;;;;;;2.85;1.98;;;;;;;13.71;65.49;95238.94;5050942;28;20200;-69
2023/05/09 07:38:09;;;;;;;2.20;2.00;;;;;;;13.68;65.04;95242.44;5096830;28;20192;-69
2023/05/09 07:41:16;;;;;;;2.95;1.83;;;;;;;13.63;65.58;95238.03;5095036;28;20242;-69
2023/05/09 07:44:25;;;;;;;2.05;1.90;;;;;;;13.70;65.72;95240.13;5097781;28;20204;-69
2023/05/09 07:47:31;;;;;;;2.45;2.25;;;;;;;13.67;66.18;95243.63;5096026;28;20235;-70
2023/05/09 07:50:12;;;;;;;2.33;2.10;;;;;;;13.63;65.53;95238.03;5097297;28;20543;-74
2023/05/09 07:52:40;;;;;;;2.60;2.40;;;;;;;13.61;64.88;95239.56;5096240;28;20273;-70
2023/05/09 07:55:13;;;;;;;2.63;2.42;;;;;;;13.61;64.50;95247.88;5097615;28;20195;-69
2023/05/09 07:57:41;;;;;;;2.75;2.55;;;;;;;13.58;65.21;95241.09;5096112;28;20512;-70
2023/05/09 08:00:12;;;;;;;2.53;2.33;;;;;;;13.54;65.36;95233.88;5096560;28;20398;-69
2023/05/09 08:02:43;;;;;;;2.50;2.30;;;;;;;13.57;65.56;95235.91;5097134;28;20196;-70
2023/05/09 08:05:15;;;;;;;2.50;2.10;;;;;;;13.56;64.89;95239.88;5097532;28;20287;-70
2023/05/09 08:07:44;;;;;;;2.63;2.00;;;;;;;13.60;65.27;95233.22;5096433;28;20208;-70
2023/05/09 08:10:12;;;;;;;3.05;2.17;;;;;;;13.56;65.49;95229.56;5096295;28;20239;-70
2023/05/09 08:12:39;;;;;;;2.30;2.20;;;;;;;13.65;65.23;95238.47;5096695;28;20205;-70
2023/05/09 08:15:08;;;;;;;2.00;1.90;;;;;;;13.70;64.98;95231.81;5096138;28;20209;-69
2023/05/09 08:17:36;;;;;;;2.20;2.00;;;;;;;13.81;65.79;95240.31;5097413;28;20193;-73
2023/05/09 08:20:07;;;;;;;2.53;2.05;;;;;;;13.94;65.47;95231.44;5095857;28;20220;-71
2023/05/09 08:22:38;;;;;;;2.40;2.20;;;;;;;14.06;65.51;95246.28;5096778;28;20199;-71
2023/05/09 08:25:07;;;;;;;1.83;1.73;;;;;;;14.08;63.66;95235.59;5096747;28;20188;-71
2023/05/09 08:27:35;;;;;;;4.43;2.40;;;;;;;14.10;62.56;95236.06;5096189;28;20223;-69
2023/05/09 08:30:04;;;;;;;2.13;1.98;;;;;;;14.21;63.60;95229.50;5097020;28;20192;-70
2023/05/09 08:32:31;;;;;;;2.63;2.40;;;;;;;14.29;63.06;95226.84;5096351;28;20210;-71
2023/05/09 08:35:00;;;;;;;2.30;1.95;;;;;;;14.41;63.66;95229.38;5096593;28;20180;-71
2023/05/09 08:37:28;;;;;;;1.90;1.60;;;;;;;14.41;63.21;95232.97;5097132;28;20221;-72
2023/05/09 08:39:57;;;;;;;2.97;1.75;;;;;;;14.45;62.63;95230.22;5096332;28;20212;-71
2023/05/09 08:42:24;;;;;;;2.45;1.73;;;;;;;14.29;63.18;95233.19;5095503;28;20239;-70
2023/05/09 08:44:52;;;;;;;1.70;1.60;;;;;;;14.20;62.58;95236.22;5096043;28;20288;-71
2023/05/09 08:47:21;;;;;;;2.20;1.65;;;;;;;14.24;65.72;95224.38;5096329;28;20196;-72
2023/05/09 08:49:50;;;;;;;1.70;1.60;;;;;;;14.40;65.03;95225.81;5095647;28;20188;-71
2023/05/09 08:52:55;;;;;;;1.80;1.70;;;;;;;14.57;66.98;95218.16;5096130;28;20632;-71
2023/05/09 08:56:00;;;;;;;2.03;1.90;;;;;;;14.62;68.01;95221.41;5095952;28;20564;-71
2023/05/09 08:59:05;;;;;;;1.98;1.73;;;;;;;14.61;66.08;95221.78;5096266;28;20207;-73
2023/05/09 09:02:13;;;;;;;1.70;1.60;;;;;;;14.39;65.71;95223.44;5096231;28;20184;-73
2023/05/09 09:05:17;;;;;;;3.20;1.70;;;;;;;14.41;66.31;95227.41;5095068;28;20204;-72
2023/05/09 09:08:26;;;;;;;1.55;1.45;;;;;;;14.27;66.99;95227.22;5095496;28;20188;-72
2023/05/09 09:11:31;;;;;;;3.35;1.95;;;;;;;14.49;67.93;95227.50;5095610;28;20188;-72
2023/05/09 09:14:40;;;;;;;1.60;1.50;;;;;;;14.50;65.62;95220.84;5096012;28;20198;-72
2023/05/09 09:17:45;;;;;;;1.70;1.60;;;;;;;14.21;65.42;95235.03;5096043;28;20199;-72
2023/05/09 09:20:50;;;;;;;1.50;1.40;;;;;;;14.07;66.60;95234.00;5095402;28;20697;-70
2023/05/09 09:23:56;;;;;;;2.83;1.70;;;;;;;14.42;68.17;95231.00;5094782;28;20192;-69
2023/05/09 09:27:01;;;;;;;3.03;1.90;;;;;;;14.52;65.08;95229.56;5096113;28;20184;-69
2023/05/09 09:30:09;;;;;;;2.00;1.77;;;;;;;14.47;65.16;95222.34;5095224;28;20580;-67
2023/05/09 09:33:15;;;;;;;1.77;1.60;;;;;;;14.44;64.62;95225.88;5095024;28;20219;-68
2023/05/09 09:36:21;;;;;;;3.42;1.83;;;;;;;14.42;64.33;95226.25;5094738;28;20203;-67
2023/05/09 09:39:29;;;;;;;2.05;1.55;;;;;;;14.39;64.52;95224.22;5095206;28;20192;-67
2023/05/09 09:42:39;;;;;;;2.60;2.40;;;;;;;14.12;63.62;95228.16;5094985;28;20236;-67
2023/05/09 09:45:47;;;;;;;1.67;1.52;;;;;;;13.88;63.22;95237.66;5093861;28;20646;-67
2023/05/09 09:48:56;;;;;;;2.50;1.50;;;;;;;13.81;64.94;95234.78;5095588;28;20180;-67
2023/05/09 09:51:36;;;;;;;1.83;1.73;;;;;;;13.87;64.04;95238.81;5095156;28;20195;-71
2023/05/09 09:54:03;;;;;;;2.13;1.65;;;;;;;13.79;64.78;95235.13;5095539;28;20192;-70
2023/05/09 09:56:41;;;;;;;1.98;1.63;;;;;;;13.53;63.54;95237.81;5095409;28;20206;-72
2023/05/09 09:59:11;;;;;;;1.60;1.50;;;;;;;13.27;65.29;95236.56;5096401;28;20211;-72
2023/05/09 10:01:57;;;;;;;2.97;1.80;;;;;;;13.26;65.95;95242.47;5097951;28;20236;-72
2023/05/09 10:04:27;;;;;;;2.70;2.00;;;;;;;13.38;67.22;95231.22;5097530;28;20197;-73
2023/05/09 10:07:02;;;;;;;2.25;2.05;;;;;;;13.49;68.50;95233.00;5096217;28;20200;-72
2023/05/09 10:09:30;;;;;;;3.53;2.00;;;;;;;13.64;68.14;95220.22;5097093;28;20184;-73
2023/05/09 10:12:03;;;;;;;1.98;1.88;;;;;;;13.81;66.70;95227.25;5096573;28;20204;-73
2023/05/09 10:14:32;;;;;;;2.72;1.92;;;;;;;13.90;66.81;95227.00;5095335;28;20208;-73
2023/05/09 10:17:02;;;;;;;1.80;1.70;;;;;;;13.96;66.21;95215.22;5096204;28;20200;-73
2023/05/09 10:19:34;;;;;;;1.98;1.88;;;;;;;13.94;65.56;95212.03;5097141;28;20198;-71
2023/05/09 10:22:06;;;;;;;2.38;2.17;;;;;;;14.04;65.82;95216.13;5098588;28;20283;-69
2023/05/09 10:24:35;;;;;;;1.92;1.83;;;;;;;14.13;66.13;95213.91;5098538;28;20192;-72
2023/05/09 10:27:04;;;;;;;1.83;1.70;;;;;;;14.26;66.72;95211.72;5098004;28;20631;-74
2023/05/09 10:29:34;;;;;;;2.13;1.92;;;;;;;14.35;65.81;95201.19;5099350;28;20184;-72
2023/05/09 10:32:08;;;;;;;1.95;1.85;;;;;;;14.38;64.47;95197.66;5099200;28;20189;-73
2023/05/09 10:34:38;;;;;;;2.20;1.95;;;;;;;14.41;65.11;95201.63;5098867;28;20211;-73
2023/05/09 10:37:08;;;;;;;2.25;2.10;;;;;;;14.41;65.36;95207.97;5098608;28;20191;-73
2023/05/09 10:39:37;;;;;;;2.00;1.90;;;;;;;14.33;65.16;95199.94;5081077;28;20658;-72
2023/05/09 10:42:05;;;;;;;2.65;2.05;;;;;;;14.34;66.23;95202.34;5097837;28;20238;-73
2023/05/09 10:44:34;;;;;;;1.80;1.70;;;;;;;14.44;65.68;95195.34;5098026;28;20253;-75
2023/05/09 10:47:02;;;;;;;1.90;1.80;;;;;;;14.63;65.20;95192.50;5098109;28;20211;-73
2023/05/09 10:49:31;;;;;;;1.90;1.80;;;;;;;14.78;65.87;95207.34;5098484;28;20205;-74
2023/05/09 10:52:01;;;;;;;3.30;2.00;;;;;;;14.81;62.95;95201.03;5098001;28;20196;-73
2023/05/09 10:54:32;;;;;;;2.00;1.90;;;;;;;14.86;64.70;95205.47;5098597;28;20184;-73
2023/05/09 10:56:59;;;;;;;2.20;2.10;;;;;;;14.86;64.48;95206.28;5097798;28;20659;-71
2023/05/09 10:59:34;;;;;;;2.20;2.10;;;;;;;14.79;64.37;95205.38;5098114;28;20197;-70
2023/05/09 11:02:03;;;;;;;2.65;2.40;;;;;;;14.72;64.03;95208.06;5097777;28;20227;-70
2023/05/09 11:04:30;;;;;;;2.58;2.38;;;;;;;14.80;65.77;95202.22;5098562;28;20190;-70
2023/05/09 11:06:57;;;;;;;2.38;2.28;;;;;;;14.91;64.27;95202.34;5097661;28;20196;-71
2023/05/09 11:09:27;;;;;;;2.45;2.25;;;;;;;15.01;65.20;95201.69;5098117;28;20604;-69
2023/05/09 11:11:56;;;;;;;3.58;2.60;;;;;;;15.14;65.26;95203.06;5098282;28;20173;-69
2023/05/09 11:14:31;;;;;;;3.33;2.60;;;;;;;15.20;64.29;95200.72;5097661;28;20192;-70
2023/05/09 11:16:59;;;;;;;2.60;2.50;;;;;;;15.23;63.64;95193.63;5098463;28;20699;-70
2023/05/09 11:19:37;;;;;;;2.63;2.42;;;;;;;15.35;62.21;95188.56;5097757;28;20565;-70
2023/05/09 11:22:13;;;;;;;2.67;2.47;;;;;;;15.49;63.22;95192.69;5097469;28;20219;-71
2023/05/09 11:24:40;;;;;;;3.00;2.42;;;;;;;15.48;63.24;95193.88;5097020;28;20195;-70
2023/05/09 11:27:16;;;;;;;2.65;2.45;;;;;;;15.45;61.83;95200.19;5097551;28;20196;-71
2023/05/09 11:29:43;;;;;;;4.03;2.58;;;;;;;15.31;63.20;95206.41;5097162;28;20520;-71
2023/05/09 11:32:13;;;;;;;3.05;2.50;;;;;;;15.17;63.03;95207.03;5097374;28;20184;-70
2023/05/09 11:34:42;;;;;;;4.28;2.45;;;;;;;15.10;61.46;95215.28;5096700;28;20189;-69
2023/05/09 11:37:10;;;;;;;4.05;2.70;;;;;;;15.06;61.80;95195.00;5097103;28;20188;-69
2023/05/09 11:39:56;;;;;;;2.95;2.65;;;;;;;15.08;62.96;95192.66;5097350;28;20199;-69
2023/05/09 11:42:25;;;;;;;3.92;3.20;;;;;;;15.15;63.14;95201.88;5096979;28;20320;-71
2023/05/09 11:44:53;;;;;;;3.13;2.83;;;;;;;15.02;62.51;95197.72;5097554;28;20196;-70
2023/05/09 11:47:21;;;;;;;3.75;3.00;;;;;;;14.91;63.30;95196.78;5097337;28;20538;-69
2023/05/09 11:49:48;;;;;;;2.58;2.35;;;;;;;14.87;63.63;95205.09;5096455;28;20196;-70
2023/05/09 11:52:15;;;;;;;2.90;2.58;;;;;;;14.86;63.01;95206.28;5096558;28;20193;-69
2023/05/09 11:54:42;;;;;;;2.53;2.33;;;;;;;14.78;63.96;95196.25;5097457;28;20242;-70
2023/05/09 11:57:09;;;;;;;3.20;3.00;;;;;;;14.82;63.49;95191.53;5096363;28;20196;-73
2023/05/09 11:59:39;;;;;;;2.80;2.50;;;;;;;14.81;63.50;95197.47;5096642;28;20581;-73
2023/05/09 12:02:07;;;;;;;3.10;2.90;;;;;;;14.71;63.87;95190.59;5097771;28;20233;-71
2023/05/09 12:04:34;;;;;;;3.00;2.70;;;;;;;14.66;64.03;95196.47;5096707;28;20196;-71
2023/05/09 12:07:02;;;;;;;2.88;2.72;;;;;;;14.59;64.56;95196.38;5096709;28;20201;-71
2023/05/09 12:09:31;;;;;;;4.40;2.78;;;;;;;14.65;64.65;95201.22;5097938;28;20192;-71
2023/05/09 12:11:58;;;;;;;2.83;2.63;;;;;;;14.62;63.36;95201.19;5096688;28;20288;-70